https://pilotweb.nas.faa.gov/PilotWeb/ : Check NOTAMs (LMML and LMMM)

Available data for LMML from the past hour
LUQA/MALTA
Metar
LMML 190115Z 34005KT 8000 3000W SCT007 11/11 Q1015 NOSIG

01:15 UTC

Wind: 340° 5kt

Visibility: 8000 m

Sky: SCT 700 ft

Temp: 11 deg C / 51.8 deg F

Dewpoint: 11 deg C / 51.8 deg F

Pressure: 1015 hPa

TAF
TAF LMML 182300Z 1900/1924 VRB05KT CAVOK BECMG 1900/1903 32010KT 9999 FEW015 PROB40 1900/1908 4000 BR BKN008 PROB30 1900/1908 0200 FG BKN001 TEMPO 1915/1924 8000 SHRA BKN020TCU BECMG 1915/1918 04010KT